createdAt,value
2019-03-08T00:02:28.973Z,999.90
2019-03-08T00:05:00.579Z,999.90
2019-03-08T00:07:38.782Z,999.90
2019-03-08T00:10:07.751Z,999.90
2019-03-08T00:12:36.462Z,999.90
2019-03-08T00:15:05.586Z,999.90
2019-03-08T00:17:43.710Z,999.90
2019-03-08T00:20:12.763Z,999.90
2019-03-08T00:22:41.549Z,999.90
2019-03-08T00:25:10.507Z,999.90
2019-03-08T00:30:22.849Z,999.90
2019-03-08T00:32:51.538Z,999.90
2019-03-08T00:35:20.330Z,999.90
2019-03-08T00:37:59.577Z,999.90
2019-03-08T00:40:28.753Z,999.90
2019-03-08T00:42:57.809Z,999.90
2019-03-08T00:45:26.532Z,999.90
2019-03-08T00:48:06.225Z,999.90
2019-03-08T00:50:37.814Z,999.90
2019-03-08T00:53:06.550Z,999.90
2019-03-08T00:55:37.275Z,999.90
2019-03-08T00:58:15.304Z,999.90
2019-03-08T01:00:44.024Z,999.90
2019-03-08T01:03:12.736Z,999.90
2019-03-08T01:05:41.867Z,999.90
2019-03-08T01:08:22.363Z,999.90
2019-03-08T01:10:51.148Z,999.90
2019-03-08T01:13:20.263Z,999.90
2019-03-08T01:15:49.414Z,999.90
2019-03-08T01:18:28.403Z,999.90
2019-03-08T01:20:58.720Z,999.90
2019-03-08T01:23:29.843Z,999.90
2019-03-08T01:26:07.683Z,999.90
2019-03-08T01:28:37.226Z,999.90
2019-03-08T01:31:06.105Z,999.90
2019-03-08T01:33:38.228Z,999.90
2019-03-08T01:36:16.484Z,999.90
2019-03-08T01:38:45.503Z,999.90
2019-03-08T01:41:14.602Z,999.90
2019-03-08T01:43:46.865Z,999.90
2019-03-08T01:46:25.515Z,999.90
2019-03-08T01:48:54.831Z,999.90
2019-03-08T01:51:23.607Z,999.90
2019-03-08T01:53:52.765Z,999.90
2019-03-08T01:56:31.127Z,999.90
2019-03-08T01:58:59.847Z,999.90
2019-03-08T02:01:28.978Z,999.90
2019-03-08T02:03:58.260Z,999.90
2019-03-08T02:06:36.366Z,999.90
2019-03-08T02:09:06.675Z,999.90
2019-03-08T02:11:35.560Z,999.90
2019-03-08T02:14:04.604Z,999.90
2019-03-08T02:16:43.063Z,999.90
2019-03-08T02:19:14.925Z,999.90
2019-03-08T02:21:43.948Z,999.90
2019-03-08T02:24:14.092Z,999.90
2019-03-08T02:26:52.598Z,999.90
2019-03-08T02:29:21.784Z,999.90
2019-03-08T02:31:51.888Z,999.90
2019-03-08T02:34:22.653Z,999.90
2019-03-08T02:37:00.872Z,999.90
2019-03-08T02:39:29.902Z,999.90
2019-03-08T02:41:58.959Z,999.90
2019-03-08T02:44:30.728Z,999.90
2019-03-08T02:47:09.400Z,999.90
2019-03-08T02:49:38.407Z,999.90
2019-03-08T02:52:07.532Z,999.90
2019-03-08T02:54:36.280Z,999.90
2019-03-08T02:59:41.541Z,999.90
2019-03-08T03:02:10.434Z,999.90
2019-03-08T03:04:39.459Z,999.90
2019-03-08T03:07:17.270Z,999.90
2019-03-08T03:09:46.349Z,999.90
2019-03-08T03:12:15.186Z,999.90
2019-03-08T03:14:43.911Z,999.90
2019-03-08T03:17:22.139Z,999.90
2019-03-08T03:19:53.071Z,999.90
2019-03-08T03:22:21.785Z,999.90
2019-03-08T03:24:51.055Z,999.90
2019-03-08T03:27:29.215Z,999.90
2019-03-08T03:29:57.950Z,999.90
2019-03-08T03:32:27.309Z,999.90
2019-03-08T03:34:56.234Z,999.90
2019-03-08T03:37:34.018Z,999.90
2019-03-08T03:42:37.689Z,999.90
2019-03-08T03:45:06.807Z,999.90
2019-03-08T03:47:44.738Z,999.90
2019-03-08T03:50:13.730Z,999.90
2019-03-08T03:52:42.695Z,999.90
2019-03-08T03:55:11.609Z,999.90
2019-03-08T03:57:49.744Z,999.90
2019-03-08T04:00:18.920Z,999.90
2019-03-08T04:02:47.679Z,999.90
2019-03-08T04:05:16.389Z,999.90
2019-03-08T04:07:54.405Z,999.90
2019-03-08T04:10:23.101Z,999.90
2019-03-08T04:12:52.046Z,999.90
2019-03-08T04:15:23.136Z,999.90
2019-03-08T04:18:01.110Z,999.90
2019-03-08T04:20:29.841Z,999.90
2019-03-08T04:22:59.043Z,999.90
2019-03-08T04:25:31.314Z,999.90
2019-03-08T04:28:09.552Z,999.90
2019-03-08T04:30:38.493Z,999.90
2019-03-08T04:33:07.189Z,999.90
2019-03-08T04:35:36.011Z,999.90
2019-03-08T04:38:14.024Z,999.90
2019-03-08T04:40:45.072Z,999.90
2019-03-08T04:43:13.765Z,999.90
2019-03-08T04:45:43.442Z,999.90
2019-03-08T04:48:21.146Z,999.90
2019-03-08T04:50:50.439Z,999.90
2019-03-08T04:53:23.382Z,999.90
2019-03-08T04:55:52.111Z,999.90
2019-03-08T04:58:29.982Z,999.90
2019-03-08T05:00:58.991Z,999.90
2019-03-08T05:03:30.733Z,999.90
2019-03-08T05:06:00.830Z,999.90
2019-03-08T05:08:38.642Z,999.90
2019-03-08T05:11:07.409Z,999.90
2019-03-08T05:13:36.243Z,999.90
2019-03-08T05:16:07.937Z,999.90
2019-03-08T05:18:45.868Z,999.90
2019-03-08T05:21:14.994Z,999.90
2019-03-08T05:23:44.544Z,999.90
2019-03-08T05:26:13.480Z,999.90
2019-03-08T05:28:54.523Z,999.90
2019-03-08T05:31:23.289Z,999.90
2019-03-08T05:33:52.540Z,999.90
2019-03-08T05:36:22.146Z,999.90
2019-03-08T05:41:28.265Z,999.90
2019-03-08T05:43:59.824Z,999.90
2019-03-08T05:46:30.931Z,999.90
2019-03-08T05:49:09.212Z,999.90
2019-03-08T05:51:38.011Z,999.90
2019-03-08T05:54:07.604Z,999.90
2019-03-08T05:56:37.622Z,999.90
2019-03-08T05:59:22.948Z,999.90
2019-03-08T06:01:53.467Z,999.90
2019-03-08T06:04:22.471Z,999.90
2019-03-08T06:06:54.414Z,999.90
2019-03-08T06:09:32.721Z,999.90
2019-03-08T06:12:02.024Z,999.90
2019-03-08T06:14:32.251Z,999.90
2019-03-08T06:17:06.327Z,999.90
2019-03-08T06:19:47.267Z,999.90
2019-03-08T06:22:30.869Z,999.90
2019-03-08T06:24:59.633Z,999.90
2019-03-08T06:27:42.169Z,999.90
2019-03-08T06:30:11.214Z,999.90
2019-03-08T06:32:40.774Z,999.90
2019-03-08T06:35:13.886Z,999.90
2019-03-08T06:37:43.356Z,999.90
2019-03-08T06:40:14.561Z,999.90
2019-03-08T06:42:44.347Z,999.90
2019-03-08T06:45:29.523Z,999.90
2019-03-08T06:48:24.035Z,999.90
2019-03-08T06:51:00.423Z,999.90
2019-03-08T06:53:29.736Z,999.90
2019-03-08T06:56:04.410Z,999.90
2019-03-08T06:58:57.756Z,999.90
2019-03-08T07:01:27.539Z,999.90
2019-03-08T07:03:57.459Z,999.90
2019-03-08T07:06:26.619Z,999.90
2019-03-08T07:09:08.463Z,999.90
2019-03-08T07:11:38.123Z,999.90
2019-03-08T07:14:07.656Z,999.90
2019-03-08T07:16:51.222Z,999.90
2019-03-08T07:19:22.251Z,999.90
2019-03-08T07:21:55.202Z,999.90
2019-03-08T07:24:42.566Z,999.90
2019-03-08T07:27:54.929Z,999.90
2019-03-08T07:31:04.706Z,999.90
2019-03-08T07:33:52.856Z,999.90
2019-03-08T07:36:35.273Z,999.90
2019-03-08T07:39:35.069Z,999.90
2019-03-08T07:42:52.148Z,999.90
2019-03-08T07:46:15.796Z,999.90
2019-03-08T07:49:08.860Z,999.90
2019-03-08T07:51:53.206Z,981.00
2019-03-08T07:54:32.904Z,999.90
2019-03-08T07:57:29.153Z,999.90
2019-03-08T08:00:10.438Z,999.90
2019-03-08T08:02:48.115Z,999.90
2019-03-08T08:05:57.388Z,999.90
2019-03-08T08:08:28.835Z,999.90
2019-03-08T08:11:08.681Z,999.90
2019-03-08T08:14:05.697Z,999.90
2019-03-08T08:17:10.467Z,999.90
2019-03-08T08:20:16.332Z,999.90
2019-03-08T08:22:53.982Z,999.90
2019-03-08T08:25:40.014Z,999.90
2019-03-08T08:28:22.915Z,999.90
2019-03-08T08:31:20.540Z,999.90
2019-03-08T08:34:06.183Z,999.90
2019-03-08T08:37:02.315Z,999.90
2019-03-08T08:39:50.575Z,999.90
2019-03-08T08:43:47.060Z,999.90
2019-03-08T08:45:16.776Z,999.90
2019-03-08T08:48:06.588Z,999.90
2019-03-08T08:50:58.777Z,999.90
2019-03-08T08:53:35.277Z,999.90
2019-03-08T08:56:55.201Z,999.90
2019-03-08T08:59:35.098Z,999.90
2019-03-08T09:02:23.033Z,999.90
2019-03-08T09:05:24.408Z,999.90
2019-03-08T09:08:28.340Z,999.90
2019-03-08T09:11:44.580Z,999.90
2019-03-08T09:14:25.109Z,999.90
2019-03-08T09:17:35.131Z,999.90
2019-03-08T09:20:34.487Z,999.90
2019-03-08T09:23:12.871Z,999.90
2019-03-08T09:25:53.290Z,999.90
2019-03-08T09:28:59.825Z,999.90
2019-03-08T09:31:44.040Z,999.90
2019-03-08T09:34:22.287Z,999.90
2019-03-08T09:37:20.870Z,999.90
2019-03-08T09:40:11.928Z,999.90
2019-03-08T09:43:02.924Z,999.90
2019-03-08T09:45:41.908Z,999.90
2019-03-08T09:48:35.919Z,999.90
2019-03-08T09:51:35.963Z,999.90
2019-03-08T09:54:15.043Z,999.90
2019-03-08T09:57:13.208Z,999.90
2019-03-08T10:00:13.813Z,999.90
2019-03-08T10:02:52.512Z,999.90
2019-03-08T10:05:47.805Z,999.90
2019-03-08T10:08:45.255Z,999.90
2019-03-08T10:11:19.367Z,999.90
2019-03-08T10:14:10.085Z,999.90
2019-03-08T10:16:52.081Z,999.90
2019-03-08T10:22:46.433Z,999.90
2019-03-08T10:25:52.741Z,999.90
2019-03-08T10:28:54.218Z,999.90
2019-03-08T10:31:42.990Z,999.90
2019-03-08T10:34:29.296Z,999.90
2019-03-08T10:37:04.825Z,999.90
2019-03-08T10:40:05.879Z,999.90
2019-03-08T10:42:44.137Z,999.90
2019-03-08T10:45:36.115Z,999.90
2019-03-08T10:48:42.327Z,999.90
2019-03-08T10:51:32.527Z,999.90
2019-03-08T10:54:09.989Z,999.90
2019-03-08T10:56:58.358Z,999.90
2019-03-08T11:00:13.956Z,999.90
2019-03-08T11:03:00.566Z,999.90
2019-03-08T11:05:57.626Z,999.90
2019-03-08T11:08:48.263Z,999.90
2019-03-08T11:11:39.462Z,999.90
2019-03-08T11:14:46.013Z,999.90
2019-03-08T11:17:24.861Z,999.90
2019-03-08T11:23:15.713Z,999.90
2019-03-08T11:26:02.484Z,999.90
2019-03-08T11:29:05.695Z,999.90
2019-03-08T11:31:47.703Z,999.90
2019-03-08T11:34:21.653Z,999.90
2019-03-08T11:36:58.046Z,999.90
2019-03-08T11:39:58.247Z,999.90
2019-03-08T11:42:39.476Z,999.90
2019-03-08T11:45:31.485Z,999.90
2019-03-08T11:51:30.190Z,999.90
2019-03-08T11:54:14.886Z,999.90
2019-03-08T11:57:06.867Z,999.90
2019-03-08T11:59:53.891Z,999.90
2019-03-08T12:02:42.302Z,999.90
2019-03-08T12:05:42.391Z,999.90
2019-03-08T12:11:25.610Z,999.90
2019-03-08T12:14:12.736Z,999.90
2019-03-08T12:17:00.944Z,999.90
2019-03-08T12:19:56.705Z,999.90
2019-03-08T12:22:36.771Z,999.90
2019-03-08T12:25:13.758Z,999.90
2019-03-08T12:28:10.582Z,999.90
2019-03-08T12:34:00.051Z,999.90
2019-03-08T12:36:46.441Z,999.90
2019-03-08T12:39:42.700Z,999.90
2019-03-08T12:42:27.571Z,999.90
2019-03-08T12:45:15.196Z,999.90
2019-03-08T12:48:07.313Z,999.90
2019-03-08T12:51:10.446Z,999.90
2019-03-08T12:53:49.484Z,999.90
2019-03-08T12:56:42.236Z,999.90
2019-03-08T13:02:28.837Z,999.90
2019-03-08T13:05:13.049Z,999.90
2019-03-08T13:08:05.799Z,999.90
2019-03-08T13:10:44.307Z,999.90
2019-03-08T13:13:14.070Z,990.70
2019-03-08T13:15:44.044Z,999.90
2019-03-08T13:18:15.505Z,999.90
2019-03-08T13:20:53.918Z,999.90
2019-03-08T13:23:22.722Z,999.90
2019-03-08T13:25:54.746Z,999.90
2019-03-08T13:28:23.486Z,999.90
2019-03-08T13:31:01.841Z,999.90
2019-03-08T13:33:30.863Z,999.90
2019-03-08T13:35:59.859Z,999.90
2019-03-08T13:38:28.805Z,999.90
2019-03-08T13:41:20.888Z,999.90
2019-03-08T13:43:50.240Z,999.90
2019-03-08T13:46:21.558Z,999.90
2019-03-08T13:48:50.784Z,999.90
2019-03-08T13:51:29.796Z,999.90
2019-03-08T13:53:59.919Z,999.90
2019-03-08T13:56:28.939Z,999.90
2019-03-08T13:58:59.137Z,999.90
2019-03-08T14:01:30.272Z,999.90
2019-03-08T14:04:02.009Z,999.90
2019-03-08T14:09:15.496Z,999.90
2019-03-08T14:11:44.682Z,999.90
2019-03-08T14:14:13.518Z,999.90
2019-03-08T14:16:54.407Z,999.90
2019-03-08T14:19:23.163Z,999.90
2019-03-08T14:21:52.049Z,999.90
2019-03-08T14:24:23.806Z,999.90
2019-03-08T14:27:01.870Z,999.90
2019-03-08T14:29:40.836Z,999.90
2019-03-08T14:32:12.061Z,999.90
2019-03-08T14:34:40.760Z,999.90
2019-03-08T14:37:19.897Z,999.90
2019-03-08T14:39:50.895Z,999.90
2019-03-08T14:42:28.926Z,999.90
2019-03-08T14:45:20.229Z,999.90
2019-03-08T14:50:37.223Z,999.90
2019-03-08T14:53:07.026Z,999.90
2019-03-08T14:55:38.839Z,999.90
2019-03-08T14:58:16.694Z,999.90
2019-03-08T15:00:45.486Z,999.90
2019-03-08T15:03:14.199Z,999.90
2019-03-08T15:05:43.690Z,999.90
2019-03-08T15:10:57.521Z,999.90
2019-03-08T15:13:28.466Z,999.90
2019-03-08T15:16:02.239Z,999.90
2019-03-08T15:18:31.231Z,999.90
2019-03-08T15:21:01.311Z,999.90
2019-03-08T15:23:30.121Z,999.90
2019-03-08T15:26:01.800Z,999.90
2019-03-08T15:28:42.189Z,999.90
2019-03-08T15:31:11.007Z,999.90
2019-03-08T15:33:39.832Z,999.90
2019-03-08T15:36:08.913Z,999.90
2019-03-08T15:39:16.251Z,999.90
2019-03-08T15:41:45.417Z,999.90
2019-03-08T15:44:14.709Z,999.90
2019-03-08T15:46:44.126Z,999.90
2019-03-08T15:49:13.258Z,999.90
2019-03-08T15:51:43.012Z,999.90
2019-03-08T15:54:13.299Z,999.90
2019-03-08T15:59:30.642Z,999.90
2019-03-08T16:02:02.161Z,999.90
2019-03-08T16:04:31.408Z,999.90
2019-03-08T16:07:09.552Z,999.90
2019-03-08T16:09:38.669Z,999.90
2019-03-08T16:12:07.473Z,999.90
2019-03-08T16:14:36.755Z,999.90
2019-03-08T16:17:07.745Z,999.90
2019-03-08T16:19:40.096Z,962.53
2019-03-08T16:22:09.018Z,945.33
2019-03-08T16:24:39.274Z,904.67
2019-03-08T16:30:09.658Z,872.17
2019-03-08T16:33:44.957Z,884.97
2019-03-08T16:40:42.000Z,650.87
2019-03-08T16:43:20.609Z,751.13
2019-03-08T16:46:38.770Z,732.70
2019-03-08T16:49:14.661Z,704.20
2019-03-08T16:52:07.520Z,775.87
2019-03-08T16:54:57.613Z,748.57
2019-03-08T16:57:57.812Z,767.17
2019-03-08T17:04:00.135Z,676.03
2019-03-08T17:06:43.514Z,668.00
2019-03-08T17:09:33.091Z,640.77
2019-03-08T17:12:23.744Z,624.57
2019-03-08T17:15:06.676Z,629.73
2019-03-08T17:17:43.285Z,701.67
2019-03-08T17:20:29.839Z,675.33
2019-03-08T17:23:21.118Z,726.27
2019-03-08T17:26:00.471Z,781.73
2019-03-08T17:28:42.220Z,693.50
2019-03-08T17:31:29.291Z,928.87
2019-03-08T17:34:17.390Z,808.53
2019-03-08T17:36:54.156Z,807.23
2019-03-08T17:39:42.335Z,728.40
2019-03-08T17:42:50.531Z,748.27
2019-03-08T17:45:45.069Z,856.77
2019-03-08T17:48:33.373Z,805.20
2019-03-08T17:51:36.741Z,629.47
2019-03-08T17:54:27.944Z,641.60
2019-03-08T17:57:22.184Z,670.47
2019-03-08T18:00:07.722Z,659.20
2019-03-08T18:09:16.628Z,757.90
2019-03-08T18:16:21.938Z,882.77
2019-03-08T18:19:17.620Z,858.40
2019-03-08T18:25:16.214Z,864.53
2019-03-08T18:27:57.073Z,864.63
2019-03-08T18:30:50.895Z,839.07
2019-03-08T18:36:29.226Z,817.30
2019-03-08T18:39:12.412Z,865.20
2019-03-08T18:44:52.844Z,839.93
2019-03-08T18:47:43.755Z,937.73
2019-03-08T18:50:29.330Z,953.73
2019-03-08T18:53:17.736Z,900.40
2019-03-08T18:56:07.020Z,927.73
2019-03-08T18:59:00.133Z,899.83
2019-03-08T19:01:53.237Z,894.37
2019-03-08T19:04:52.382Z,870.87
2019-03-08T19:07:52.047Z,845.43
2019-03-08T19:10:31.704Z,834.33
2019-03-08T19:13:35.332Z,846.57
2019-03-08T19:16:32.503Z,839.97
2019-03-08T19:19:15.171Z,830.13
2019-03-08T19:22:02.240Z,837.47
2019-03-08T19:24:50.739Z,833.27
2019-03-08T19:27:37.996Z,844.83
2019-03-08T19:30:30.276Z,893.17
2019-03-08T19:36:13.057Z,858.60
2019-03-08T19:39:05.110Z,803.33
2019-03-08T19:41:52.299Z,819.83
2019-03-08T19:44:55.288Z,810.27
2019-03-08T19:47:52.508Z,815.83
2019-03-08T19:50:40.001Z,801.97
2019-03-08T19:56:29.731Z,839.03
2019-03-08T20:02:14.996Z,771.97
2019-03-08T20:05:02.217Z,783.70
2019-03-08T20:10:39.221Z,792.47
2019-03-08T20:13:29.480Z,818.13
2019-03-08T20:19:48.355Z,801.40
2019-03-08T20:22:39.612Z,813.23
2019-03-08T20:25:25.828Z,791.77
2019-03-08T20:31:13.859Z,827.90
2019-03-08T20:34:07.515Z,791.23
2019-03-08T20:36:53.344Z,824.30
2019-03-08T20:39:53.677Z,799.03
2019-03-08T20:42:47.544Z,796.73
2019-03-08T20:45:32.868Z,824.63
2019-03-08T20:50:37.063Z,823.53
2019-03-08T20:53:06.312Z,791.77
2019-03-08T20:55:35.316Z,830.50
2019-03-08T20:58:05.562Z,820.57
2019-03-08T21:00:44.038Z,815.63
2019-03-08T21:03:15.595Z,807.17
2019-03-08T21:05:46.849Z,825.43
2019-03-08T21:08:32.092Z,835.33
2019-03-08T21:11:01.203Z,806.17
2019-03-08T21:13:30.285Z,827.00
2019-03-08T21:16:02.388Z,796.77
2019-03-08T21:18:40.489Z,817.40
2019-03-08T21:21:09.730Z,771.73
2019-03-08T21:23:38.628Z,805.73
2019-03-08T21:26:07.520Z,829.33
2019-03-08T21:29:04.834Z,790.50
2019-03-08T21:31:33.767Z,809.83
2019-03-08T21:34:03.207Z,794.27
2019-03-08T21:36:32.052Z,828.27
2019-03-08T21:39:10.328Z,777.33
2019-03-08T21:41:39.583Z,802.73
2019-03-08T21:44:08.652Z,816.87
2019-03-08T21:46:37.725Z,803.20
2019-03-08T21:49:21.495Z,792.57
2019-03-08T21:51:50.792Z,787.90
2019-03-08T21:54:21.328Z,796.97
2019-03-08T21:56:52.003Z,797.50
2019-03-08T22:02:04.958Z,773.97
2019-03-08T22:04:46.927Z,746.73
2019-03-08T22:07:15.975Z,718.90
2019-03-08T22:12:59.587Z,796.43
2019-03-08T22:15:28.776Z,802.30
2019-03-08T22:17:57.512Z,789.23
2019-03-08T22:20:36.205Z,771.13
2019-03-08T22:23:08.432Z,762.93
2019-03-08T22:25:40.353Z,704.20
2019-03-08T22:28:09.711Z,566.10
2019-03-08T22:30:47.901Z,459.23
2019-03-08T22:33:17.060Z,346.80
2019-03-08T22:35:46.193Z,304.70
2019-03-08T22:38:15.835Z,240.43
2019-03-08T22:40:53.812Z,328.27
2019-03-08T22:43:22.943Z,285.30
2019-03-08T22:45:52.460Z,220.30
2019-03-08T22:48:24.336Z,268.07
2019-03-08T22:51:02.323Z,248.30
2019-03-08T22:53:31.483Z,345.63
2019-03-08T22:56:01.137Z,376.83
2019-03-08T22:58:30.252Z,347.97
2019-03-08T23:01:10.371Z,412.97
2019-03-08T23:03:39.136Z,354.03
2019-03-08T23:06:08.187Z,440.33
2019-03-08T23:08:37.505Z,425.07
2019-03-08T23:13:50.936Z,287.60
2019-03-08T23:16:22.188Z,290.60
2019-03-08T23:18:51.208Z,201.67
2019-03-08T23:21:29.483Z,136.97
2019-03-08T23:23:58.985Z,275.53
2019-03-08T23:26:30.141Z,239.33
2019-03-08T23:29:06.241Z,76.27
2019-03-08T23:31:58.172Z,71.57
2019-03-08T23:34:27.288Z,32.83
2019-03-08T23:36:56.307Z,179.87
2019-03-08T23:39:25.073Z,174.43
2019-03-08T23:42:03.363Z,209.60
2019-03-08T23:44:32.459Z,236.73
2019-03-08T23:47:01.362Z,108.93
2019-03-08T23:49:30.382Z,135.93
2019-03-08T23:54:42.511Z,138.83
2019-03-08T23:57:14.232Z,69.37
2019-03-08T23:59:43.583Z,71.70
